Time;durP1;ratioP1;P1;durP2;ratioP2;P2;SDS_P1;SDS_P2;PMS_P1;PMS_P2;Temp;Humidity;BMP_temperature;BMP_pressure;BME280_temperature;BME280_humidity;BME280_pressure;Samples;Min_cycle;Max_cycle;Signal;HPM_P1;HPM_P2
2022/01/02 00:00:08;;;;;;;6.13;3.30;;;;;;;-144.19;100.00;76823.31;5043638;28;20059;-93
2022/01/02 00:02:36;;;;;;;6.90;3.63;;;;;;;-144.19;100.00;76819.38;5063035;28;20066;-92
2022/01/02 00:05:07;;;;;;;5.03;3.38;;;;;;;-144.19;100.00;76807.56;5062059;28;20499;-88
2022/01/02 00:07:40;;;;;;;5.82;3.35;;;;;;;-144.19;100.00;76801.66;5064213;28;20044;-92
2022/01/02 00:10:08;;;;;;;5.60;3.33;;;;;;;-144.19;100.00;76805.59;5060499;28;20048;-94
2022/01/02 00:12:39;;;;;;;7.68;4.18;;;;;;;-144.19;100.00;76811.50;5059751;28;20066;-92
2022/01/02 00:15:06;;;;;;;7.07;4.28;;;;;;;-144.19;100.00;76823.31;5075024;28;20079;-91
2022/01/02 00:17:33;;;;;;;6.43;3.65;;;;;;;-144.19;100.00;76811.50;5065442;28;20532;-91
2022/01/02 00:20:09;;;;;;;5.70;3.73;;;;;;;-144.19;100.00;76817.41;5060023;28;20442;-89
2022/01/02 00:22:40;;;;;;;8.85;3.97;;;;;;;-144.19;100.00;76817.41;5061890;28;20305;-88
2022/01/02 00:25:13;;;;;;;7.03;3.65;;;;;;;-144.19;100.00;76811.50;5065021;28;20048;-91
2022/01/02 00:27:41;;;;;;;6.28;3.63;;;;;;;-144.19;100.00;76799.69;5062509;28;20052;-90
2022/01/02 00:30:07;;;;;;;;;;;;;;;-144.19;100.00;76803.63;5061474;28;20116;-93
2022/01/02 00:32:36;;;;;;;6.18;3.78;;;;;;;-144.19;100.00;76811.50;5060372;28;19927;-92
2022/01/02 00:35:04;;;;;;;5.45;3.65;;;;;;;-144.19;100.00;76799.69;5063707;28;20048;-90
2022/01/02 00:37:30;;;;;;;7.55;4.10;;;;;;;-144.19;100.00;76811.50;5082152;28;20040;-90
2022/01/02 00:39:57;;;;;;;6.03;3.55;;;;;;;-144.19;100.00;76815.44;5081969;28;20052;-92
2022/01/02 00:42:32;;;;;;;7.53;3.88;;;;;;;-144.19;100.00;76837.09;5079608;28;20130;-92
2022/01/02 00:45:25;;;;;;;8.80;4.22;;;;;;;-144.19;100.00;76835.13;5076427;28;20048;-92
2022/01/02 00:47:58;;;;;;;6.70;4.05;;;;;;;-144.19;100.00;76831.19;5078217;28;20047;-89
2022/01/02 00:50:38;;;;;;;5.40;4.10;;;;;;;-144.19;100.00;76815.44;5079163;28;20058;-92
2022/01/02 00:53:09;;;;;;;6.90;4.50;;;;;;;-144.19;100.00;76819.38;5060381;28;20052;-93
2022/01/02 00:55:36;;;;;;;7.95;4.13;;;;;;;-144.19;100.00;76791.81;5066529;28;20135;-93
2022/01/02 00:58:12;;;;;;;8.13;3.90;;;;;;;-144.19;100.00;76823.31;5079130;28;20048;-90
2022/01/02 01:00:47;;;;;;;5.60;3.53;;;;;;;-144.19;100.00;76815.44;5077603;28;20062;-89
2022/01/02 01:03:22;;;;;;;7.32;4.30;;;;;;;-144.19;100.00;76827.25;5097334;28;20048;-93
2022/01/02 01:05:53;;;;;;;7.97;3.88;;;;;;;-144.19;100.00;76819.38;5078864;28;20055;-91
2022/01/02 01:08:23;;;;;;;6.40;3.80;;;;;;;-144.19;100.00;76821.34;5075762;28;20045;-92
2022/01/02 01:10:50;;;;;;;8.63;4.45;;;;;;;-144.19;100.00;76843.00;5062562;28;20048;-90
2022/01/02 01:13:18;;;;;;;6.47;4.22;;;;;;;-144.19;100.00;76817.41;5053158;28;20052;-91
2022/01/02 01:15:44;;;;;;;8.00;4.88;;;;;;;-144.19;100.00;76833.16;5054153;28;20062;-92
2022/01/02 01:18:11;;;;;;;7.00;4.97;;;;;;;-144.19;100.00;76843.00;5085517;28;20044;-92
2022/01/02 01:20:42;;;;;;;6.82;4.43;;;;;;;-144.19;100.00;76837.09;5078791;28;20294;-91
2022/01/02 01:23:12;;;;;;;7.85;4.38;;;;;;;-144.19;100.00;76823.31;5080249;28;20048;-90
2022/01/02 01:25:44;;;;;;;5.43;3.70;;;;;;;-144.19;100.00;76854.81;5073056;28;20059;-91
2022/01/02 01:28:14;;;;;;;10.43;4.75;;;;;;;-144.19;100.00;76858.75;5057812;28;20044;-92
2022/01/02 01:30:41;;;;;;;5.57;3.85;;;;;;;-144.19;100.00;76843.00;5059509;28;20486;-90
2022/01/02 01:33:08;;;;;;;;;;;;;;;-144.19;100.00;76872.53;5058629;28;20070;-91
2022/01/02 01:35:34;;;;;;;7.32;4.25;;;;;;;-144.19;100.00;76874.50;5059540;28;19920;-91
2022/01/02 01:38:02;;;;;;;8.17;4.50;;;;;;;-144.19;100.00;76846.94;5063258;28;20048;-91
2022/01/02 01:40:48;;;;;;;6.82;4.15;;;;;;;-144.19;100.00;76854.81;5022843;28;1080735;-92
2022/01/02 01:43:14;;;;;;;8.23;4.55;;;;;;;-144.19;100.00;76848.91;5047650;28;20056;-91
2022/01/02 01:45:42;;;;;;;5.55;3.78;;;;;;;-144.19;100.00;76882.38;5037183;28;20056;-91
2022/01/02 01:48:09;;;;;;;7.50;4.65;;;;;;;-144.19;100.00;76882.38;5036713;28;20067;-89
2022/01/02 01:50:38;;;;;;;8.95;4.80;;;;;;;-144.19;100.00;76872.53;5036058;28;20495;-92
2022/01/02 01:53:06;;;;;;;5.93;4.28;;;;;;;-144.19;100.00;76888.28;5053380;28;20506;-92
2022/01/02 01:55:34;;;;;;;7.15;4.97;;;;;;;-144.19;100.00;76909.94;5035207;28;20048;-86
2022/01/02 01:58:03;;;;;;;7.72;4.43;;;;;;;-144.19;100.00;76909.94;5035193;28;20478;-89
2022/01/02 02:00:33;;;;;;;7.78;4.22;;;;;;;-144.19;100.00;76894.19;5053575;28;20057;-92
2022/01/02 02:03:00;;;;;;;7.75;4.53;;;;;;;-144.19;100.00;76898.13;5035985;28;20049;-89
2022/01/02 02:05:27;;;;;;;6.78;3.83;;;;;;;-144.19;100.00;76907.97;5035888;28;20495;-87
2022/01/02 02:07:53;;;;;;;9.32;4.70;;;;;;;-144.19;100.00;76929.63;5042529;28;20055;-89
2022/01/02 02:10:27;;;;;;;6.43;4.28;;;;;;;-144.19;100.00;76923.72;5035700;28;20495;-89
2022/01/02 02:12:56;;;;;;;7.72;4.53;;;;;;;-144.19;100.00;76913.88;5034598;28;20064;-90
2022/01/02 02:15:24;;;;;;;7.80;4.22;;;;;;;-144.19;100.00;76911.91;5059947;28;20052;-89
2022/01/02 02:17:51;;;;;;;;;;;;;;;-144.19;100.00;76915.84;5039599;28;20045;-89
2022/01/02 02:20:20;;;;;;;8.05;4.75;;;;;;;-144.19;100.00;76909.94;5034959;28;19943;-92
2022/01/02 02:22:51;;;;;;;8.55;5.28;;;;;;;-144.19;100.00;76909.94;5034762;28;20052;-87
2022/01/02 02:25:20;;;;;;;7.80;5.13;;;;;;;-144.19;100.00;76898.13;5052918;28;20053;-86
2022/01/02 02:27:56;;;;;;;9.30;5.85;;;;;;;-144.19;100.00;76898.13;5034821;28;20513;-88
2022/01/02 02:30:25;;;;;;;7.95;4.93;;;;;;;-144.19;100.00;76909.94;5035056;28;20055;-90
2022/01/02 02:32:56;;;;;;;9.57;5.05;;;;;;;-144.19;100.00;76907.97;5034236;28;20537;-88
2022/01/02 02:35:23;;;;;;;9.23;5.40;;;;;;;-144.19;100.00;76927.66;5072546;28;20048;-93
2022/01/02 02:37:50;;;;;;;8.93;4.75;;;;;;;-144.19;100.00;76902.06;5054183;28;20044;-90
2022/01/02 02:40:20;;;;;;;8.70;4.50;;;;;;;-144.19;100.00;76909.94;5055029;28;20060;-90
2022/01/02 02:42:51;;;;;;;7.03;4.53;;;;;;;-144.19;100.00;76907.97;5054670;28;20060;-88
2022/01/02 02:51:14;;;;;;;7.82;4.30;;;;;;;-144.19;100.00;76894.19;5071504;28;20425;-88
2022/01/02 02:53:45;;;;;;;6.97;4.45;;;;;;;-144.19;100.00;76896.16;5071825;28;20063;-91
2022/01/02 02:56:20;;;;;;;9.65;4.85;;;;;;;-144.19;100.00;76894.19;5085350;28;20056;-90
2022/01/02 02:58:49;;;;;;;6.85;4.40;;;;;;;-144.19;100.00;76882.38;5092357;28;20050;-89
2022/01/02 03:01:18;;;;;;;10.15;4.50;;;;;;;-144.19;100.00;76894.19;5074620;28;20667;-87
2022/01/02 03:03:46;;;;;;;7.95;4.55;;;;;;;-144.19;100.00;76886.31;5074487;28;20134;-89
2022/01/02 03:06:13;;;;;;;10.85;5.40;;;;;;;-144.19;100.00;76884.34;5092377;28;20059;-89
2022/01/02 03:08:41;;;;;;;9.23;4.80;;;;;;;-144.19;100.00;76874.50;5049530;28;20049;-87
2022/01/02 03:11:13;;;;;;;7.88;4.88;;;;;;;-144.19;100.00;76878.44;5037508;28;20045;-91
2022/01/02 03:13:40;;;;;;;12.90;5.43;;;;;;;-144.19;100.00;76888.28;5047106;28;20051;-90
2022/01/02 03:16:06;;;;;;;10.07;4.68;;;;;;;-144.19;100.00;76872.53;5058357;28;20052;-89
2022/01/02 03:18:33;;;;;;;12.23;4.88;;;;;;;-144.19;100.00;76860.72;5058299;28;20060;-90
2022/01/02 03:20:59;;;;;;;7.50;4.60;;;;;;;-144.19;100.00;76846.94;5057404;28;20049;-91
2022/01/02 03:23:26;;;;;;;10.38;5.00;;;;;;;-144.19;100.00;76870.56;5058371;28;20282;-90
2022/01/02 03:25:52;;;;;;;12.63;5.00;;;;;;;-144.19;100.00;76850.88;5041413;28;20465;-87
2022/01/02 03:28:19;;;;;;;10.52;5.00;;;;;;;-144.19;100.00;76846.94;5037776;28;20045;-89
2022/01/02 03:30:45;;;;;;;9.95;4.57;;;;;;;-144.19;100.00;76858.75;5037568;28;20071;-91
2022/01/02 03:33:12;;;;;;;10.40;4.90;;;;;;;-144.19;100.00;76843.00;5055259;28;20053;-88
2022/01/02 03:35:38;;;;;;;9.17;5.00;;;;;;;-144.19;100.00;76835.13;5056179;28;20048;-91
2022/01/02 03:38:05;;;;;;;12.68;5.00;;;;;;;-144.19;100.00;76837.09;5077504;28;20302;-89
2022/01/02 03:40:32;;;;;;;8.88;4.72;;;;;;;-144.19;100.00;76835.13;5077272;28;20058;-91
2022/01/02 03:43:00;;;;;;;10.73;4.75;;;;;;;-144.19;100.00;76827.25;5042564;28;20049;-89
2022/01/02 03:45:26;;;;;;;;;;;;;;;-144.19;100.00;76823.31;5045290;28;20048;-89
2022/01/02 03:47:52;;;;;;;8.85;5.32;;;;;;;-144.19;100.00;76811.50;5037186;28;19924;-89
2022/01/02 03:50:19;;;;;;;7.57;5.28;;;;;;;-144.19;100.00;76815.44;5036649;28;20049;-87
2022/01/02 03:52:45;;;;;;;10.97;5.33;;;;;;;-144.19;100.00;76791.81;5037198;28;20055;-87
2022/01/02 03:55:12;;;;;;;10.93;5.40;;;;;;;-144.19;100.00;76795.75;5045514;28;20489;-92
2022/01/02 03:57:40;;;;;;;10.73;4.68;;;;;;;-144.19;100.00;76791.81;5077540;28;20051;-91
2022/01/02 04:00:10;;;;;;;11.40;4.72;;;;;;;-144.19;100.00;76781.97;5057975;28;20060;-91
2022/01/02 04:02:37;;;;;;;9.20;4.53;;;;;;;-144.19;100.00;76774.09;5056767;28;20562;-89
2022/01/02 04:05:06;;;;;;;9.15;4.70;;;;;;;-144.19;100.00;76776.06;5074696;28;20048;-88
2022/01/02 04:07:33;;;;;;;8.82;4.70;;;;;;;-144.19;100.00;76756.38;5057327;28;20057;-89
2022/01/02 04:10:04;;;;;;;9.50;5.10;;;;;;;-144.19;100.00;76764.25;5057026;28;20044;-88
2022/01/02 04:12:30;;;;;;;11.35;4.93;;;;;;;-144.19;100.00;76748.50;5057097;28;20051;-92
2022/01/02 04:14:57;;;;;;;9.00;4.88;;;;;;;-144.19;100.00;76744.56;5061836;28;20051;-91
2022/01/02 04:17:23;;;;;;;8.40;4.82;;;;;;;-144.19;100.00;76760.31;5073388;28;20051;-92
2022/01/02 04:19:51;;;;;;;10.73;5.43;;;;;;;-144.19;100.00;76748.50;5077540;28;20395;-89
2022/01/02 04:22:17;;;;;;;;;;;;;;;-144.19;100.00;76748.50;5077394;28;20131;-91
2022/01/02 04:24:44;;;;;;;10.55;5.05;;;;;;;-144.19;100.00;76748.50;5095499;28;19920;-88
2022/01/02 04:27:11;;;;;;;13.65;5.18;;;;;;;-144.19;100.00;76752.44;5094804;28;20052;-89
2022/01/02 04:29:37;;;;;;;12.68;5.30;;;;;;;-144.19;100.00;76736.69;5077038;28;20048;-92
2022/01/02 04:32:04;;;;;;;14.37;5.13;;;;;;;-144.19;100.00;76732.75;5073582;28;20486;-89
2022/01/02 04:34:30;;;;;;;11.02;5.13;;;;;;;-144.19;100.00;76728.81;5057436;28;20052;-88
2022/01/02 04:36:57;;;;;;;14.83;5.00;;;;;;;-144.19;100.00;76717.00;5076742;28;20048;-87
2022/01/02 04:39:23;;;;;;;9.52;4.10;;;;;;;-144.19;100.00;76715.03;5076765;28;20048;-90
2022/01/02 04:41:50;;;;;;;17.83;5.10;;;;;;;-144.19;100.00;76717.00;5076243;28;20052;-90
2022/01/02 04:44:16;;;;;;;14.83;4.57;;;;;;;-144.19;100.00;76699.28;5075779;28;20052;-87
2022/01/02 04:46:43;;;;;;;11.23;4.97;;;;;;;-144.19;100.00;76685.53;5076839;28;20055;-89
2022/01/02 04:49:09;;;;;;;10.23;4.57;;;;;;;-144.19;100.00;76673.72;5073063;28;20045;-89
2022/01/02 04:51:35;;;;;;;13.65;4.75;;;;;;;-144.19;100.00;76677.66;5056340;28;20306;-90
2022/01/02 04:54:02;;;;;;;10.75;4.75;;;;;;;-144.19;100.00;76679.59;5056090;28;20391;-91
2022/01/02 04:56:29;;;;;;;10.68;4.90;;;;;;;-144.19;100.00;76663.88;5071260;28;20055;-89
2022/01/02 04:58:55;;;;;;;11.20;4.13;;;;;;;-144.19;100.00;76667.81;5076467;28;20043;-91
2022/01/02 05:01:22;;;;;;;12.33;3.87;;;;;;;-144.19;100.00;76667.81;5076940;28;20066;-89
2022/01/02 05:03:48;;;;;;;11.52;3.95;;;;;;;-144.19;100.00;76659.94;5095220;28;20391;-91
2022/01/02 05:06:15;;;;;;;9.52;3.95;;;;;;;-144.19;100.00;76673.72;5070103;28;20049;-91
2022/01/02 05:08:45;;;;;;;14.03;5.07;;;;;;;-144.19;100.00;76683.53;5037142;28;20051;-93
2022/01/02 05:11:16;;;;;;;12.57;4.25;;;;;;;-144.19;100.00;76689.44;5036490;28;20052;-89
2022/01/02 05:13:53;;;;;;;15.27;4.63;;;;;;;-144.19;100.00;76689.44;5045761;28;20072;-90
2022/01/02 05:16:19;;;;;;;11.25;4.55;;;;;;;-144.19;100.00;76695.34;5074002;28;20051;-90
2022/01/02 05:18:46;;;;;;;15.57;4.77;;;;;;;-144.19;100.00;76673.72;5084408;28;20093;-87
2022/01/02 05:21:13;;;;;;;11.65;4.63;;;;;;;-144.19;100.00;76677.66;5089940;28;20290;-91
2022/01/02 05:23:41;;;;;;;11.48;5.07;;;;;;;-144.19;100.00;76677.66;5078923;28;20563;-93
2022/01/02 05:26:07;;;;;;;13.90;4.50;;;;;;;-144.19;100.00;76679.59;5078586;28;20052;-89
2022/01/02 05:28:33;;;;;;;13.53;4.30;;;;;;;-144.19;100.00;76661.91;5078639;28;20048;-91
2022/01/02 05:31:00;;;;;;;18.17;5.65;;;;;;;-144.19;100.00;76654.03;5078117;28;20071;-89
2022/01/02 05:33:27;;;;;;;14.15;4.70;;;;;;;-144.19;100.00;76656.00;5085714;28;20078;-94
2022/01/02 05:35:53;;;;;;;14.07;4.22;;;;;;;-144.19;100.00;76642.22;5078061;28;20055;-92
2022/01/02 05:38:20;;;;;;;15.17;4.93;;;;;;;-144.19;100.00;76636.31;5084569;28;20094;-91
2022/01/02 05:40:49;;;;;;;10.80;4.40;;;;;;;-144.19;100.00;76614.66;5060479;28;20049;-89
2022/01/02 05:43:16;;;;;;;14.02;5.05;;;;;;;-144.19;100.00;76618.59;5035658;28;20053;-91
2022/01/02 05:45:42;;;;;;;13.70;5.30;;;;;;;-144.19;100.00;76602.84;5036196;28;20049;-86
2022/01/02 05:48:09;;;;;;;13.47;4.17;;;;;;;-144.19;100.00;76594.97;5034825;28;20045;-92
2022/01/02 05:50:35;;;;;;;12.85;4.38;;;;;;;-144.19;100.00;76598.91;5036215;28;20362;-90
2022/01/02 05:53:02;;;;;;;10.27;4.70;;;;;;;-144.19;100.00;76598.91;5035632;28;20654;-90
2022/01/02 05:55:29;;;;;;;17.17;5.43;;;;;;;-144.19;100.00;76598.91;5049141;28;20131;-90
2022/01/02 05:57:55;;;;;;;14.13;5.07;;;;;;;-144.19;100.00;76598.91;5066411;28;20059;-92
2022/01/02 06:00:21;;;;;;;9.53;4.10;;;;;;;-144.19;100.00;76594.97;5055948;28;20052;-90
2022/01/02 06:02:51;;;;;;;11.65;4.47;;;;;;;-144.19;100.00;76581.19;5056537;28;20056;-90
2022/01/02 06:05:18;;;;;;;17.10;4.97;;;;;;;-144.19;100.00;76573.31;5055407;28;20052;-91
2022/01/02 06:07:44;;;;;;;14.13;5.07;;;;;;;-144.19;100.00;76559.53;5054906;28;20052;-89
2022/01/02 06:10:10;;;;;;;14.50;5.35;;;;;;;-144.19;100.00;76571.34;5072637;28;20415;-90
2022/01/02 06:12:37;;;;;;;12.83;4.77;;;;;;;-144.19;100.00;76567.41;5055481;28;20135;-91
2022/01/02 06:15:06;;;;;;;8.50;4.20;;;;;;;-144.19;100.00;76573.31;5056293;28;20512;-91
2022/01/02 06:17:33;;;;;;;11.82;5.40;;;;;;;-144.19;100.00;76598.91;5056012;28;20480;-91
2022/01/02 06:20:00;;;;;;;15.05;5.40;;;;;;;-144.19;100.00;76583.16;5055587;28;20055;-93
2022/01/02 06:22:27;;;;;;;15.70;5.53;;;;;;;-144.19;100.00;76583.16;5058233;28;20481;-92
2022/01/02 06:24:54;;;;;;;;;;;;;;;-144.19;100.00;76593.00;5041272;28;20076;-91
2022/01/02 06:27:21;;;;;;;14.55;5.55;;;;;;;-144.19;100.00;76598.91;5057099;28;19924;-92
2022/01/02 06:29:47;;;;;;;12.25;4.93;;;;;;;-144.19;100.00;76614.66;5056935;28;20048;-94
2022/01/02 06:32:14;;;;;;;18.57;6.03;;;;;;;-144.19;100.00;76624.50;5056722;28;20664;-93
2022/01/02 06:34:40;;;;;;;12.80;5.65;;;;;;;-144.19;100.00;76614.66;5057889;28;20092;-92
2022/01/02 06:37:07;;;;;;;11.73;5.67;;;;;;;-144.19;100.00;76622.53;5055709;28;20048;-90
2022/01/02 06:39:33;;;;;;;16.77;6.80;;;;;;;-144.19;100.00;76628.44;5055628;28;20465;-92
2022/01/02 06:42:01;;;;;;;;;;;;;;;-144.19;100.00;76626.47;5057001;28;20076;-91
2022/01/02 06:44:27;;;;;;;14.60;6.72;;;;;;;-144.19;100.00;76614.66;5059923;28;19926;-92
2022/01/02 06:46:54;;;;;;;14.63;6.00;;;;;;;-144.19;100.00;76608.75;5059727;28;20083;-92
2022/01/02 06:49:20;;;;;;;14.68;6.35;;;;;;;-144.19;100.00;76622.53;5059808;28;20048;-92
2022/01/02 06:51:47;;;;;;;14.18;6.40;;;;;;;-144.19;100.00;76598.91;5059418;28;20139;-92
2022/01/02 06:54:13;;;;;;;15.47;6.97;;;;;;;-144.19;100.00;76598.91;5063334;28;20522;-92
2022/01/02 06:56:40;;;;;;;15.77;6.43;;;;;;;-144.19;100.00;76589.06;5090281;28;20055;-91
2022/01/02 06:59:06;;;;;;;15.88;6.72;;;;;;;-144.19;100.00;76589.06;5078917;28;20382;-89
2022/01/02 07:01:33;;;;;;;16.45;6.22;;;;;;;-144.19;100.00;76606.78;5078532;28;20058;-91
2022/01/02 07:04:00;;;;;;;12.98;6.80;;;;;;;-144.19;100.00;76604.81;5079105;28;20139;-91
2022/01/02 07:06:26;;;;;;;11.00;6.13;;;;;;;-144.19;100.00;76589.06;5078685;28;20055;-91
2022/01/02 07:08:53;;;;;;;18.43;7.07;;;;;;;-144.19;100.00;76587.09;5078833;28;20463;-93
2022/01/02 07:11:19;;;;;;;15.23;6.57;;;;;;;-144.19;100.00;76594.97;5078338;28;20048;-92
2022/01/02 07:13:45;;;;;;;14.25;6.30;;;;;;;-144.19;100.00;76587.09;5078484;28;20296;-90
2022/01/02 07:16:12;;;;;;;11.10;5.57;;;;;;;-144.19;100.00;76577.25;5079558;28;20048;-93
2022/01/02 07:18:39;;;;;;;13.48;6.57;;;;;;;-144.19;100.00;76569.38;5079607;28;20047;-90
2022/01/02 07:21:05;;;;;;;15.07;6.32;;;;;;;-144.19;100.00;76571.34;5078173;28;20048;-88
2022/01/02 07:23:35;;;;;;;11.90;5.90;;;;;;;-144.19;100.00;76563.47;5049756;28;20053;-87
2022/01/02 07:26:02;;;;;;;14.05;5.90;;;;;;;-144.19;100.00;76559.53;5038220;28;20310;-88
2022/01/02 07:28:33;;;;;;;13.52;6.32;;;;;;;-144.19;100.00;76565.44;5037542;28;20059;-88
2022/01/02 07:31:00;;;;;;;11.68;5.70;;;;;;;-144.19;100.00;76555.59;5037235;28;20647;-89
2022/01/02 07:33:26;;;;;;;12.27;6.13;;;;;;;-144.19;100.00;76551.66;5036669;28;20084;-86
2022/01/02 07:35:53;;;;;;;11.83;6.70;;;;;;;-144.19;100.00;76555.59;5055679;28;20056;-88
2022/01/02 07:38:30;;;;;;;12.30;5.60;;;;;;;-144.19;100.00;76547.72;5039032;28;20045;-88
2022/01/02 07:40:56;;;;;;;14.38;5.10;;;;;;;-144.19;100.00;76541.81;5038402;28;20044;-88
2022/01/02 07:43:22;;;;;;;12.52;6.65;;;;;;;-144.19;100.00;76551.66;5037235;28;20147;-89
2022/01/02 07:45:49;;;;;;;11.25;5.80;;;;;;;-144.19;100.00;76530.00;5038400;28;20060;-90
2022/01/02 07:48:16;;;;;;;10.90;5.10;;;;;;;-144.19;100.00;76528.03;5037464;28;20103;-90
2022/01/02 07:50:42;;;;;;;17.07;5.70;;;;;;;-144.19;100.00;76522.13;5081768;28;20093;-90
2022/01/02 07:53:08;;;;;;;15.50;6.35;;;;;;;-144.19;100.00;76508.34;5095588;28;20421;-89
2022/01/02 07:55:35;;;;;;;17.33;5.60;;;;;;;-144.19;100.00;76504.41;5077722;28;20516;-90
2022/01/02 07:58:01;;;;;;;11.13;5.25;;;;;;;-144.19;100.00;76502.44;5058775;28;20048;-92
2022/01/02 08:00:28;;;;;;;10.53;4.83;;;;;;;-144.19;100.00;76490.66;5057275;28;20048;-88
2022/01/02 08:02:54;;;;;;;15.80;5.60;;;;;;;-144.19;100.00;76478.84;5057692;28;20308;-89
2022/01/02 08:05:21;;;;;;;11.23;5.57;;;;;;;-144.19;100.00;76476.88;5056686;28;20044;-91
2022/01/02 08:07:47;;;;;;;13.45;5.28;;;;;;;-144.19;100.00;76476.88;5075363;28;20051;-88
2022/01/02 08:10:14;;;;;;;13.27;5.75;;;;;;;-144.19;100.00;76486.72;5058012;28;20494;-91
2022/01/02 08:12:40;;;;;;;12.60;4.93;;;;;;;-144.19;100.00;76478.84;5091494;28;20052;-88
2022/01/02 08:15:07;;;;;;;11.23;5.40;;;;;;;-144.19;100.00;76476.88;5051732;28;20048;-90
2022/01/02 08:17:34;;;;;;;;;;;;;;;-144.19;100.00;76474.91;5057587;28;20127;-91
2022/01/02 08:20:01;;;;;;;11.75;5.38;;;;;;;-144.19;100.00;76472.94;5066210;28;19919;-87
2022/01/02 08:22:27;;;;;;;17.27;6.43;;;;;;;-144.19;100.00;76469.00;5074588;28;20048;-86
2022/01/02 08:24:54;;;;;;;12.88;5.18;;;;;;;-144.19;100.00;76457.19;5076497;28;20436;-89
2022/01/02 08:27:21;;;;;;;15.77;6.35;;;;;;;-144.19;100.00;76457.19;5070725;28;20054;-89
2022/01/02 08:29:48;;;;;;;14.35;6.30;;;;;;;-144.19;100.00;76437.50;5077744;28;20116;-87
2022/01/02 08:32:14;;;;;;;12.50;5.73;;;;;;;-144.19;100.00;76429.63;5072875;28;20063;-88
2022/01/02 08:34:41;;;;;;;20.15;5.70;;;;;;;-144.19;100.00;76425.69;5058471;28;20118;-93
2022/01/02 08:37:07;;;;;;;15.93;5.47;;;;;;;-144.19;100.00;76425.69;5062215;28;20434;-90
2022/01/02 08:39:33;;;;;;;16.07;5.10;;;;;;;-144.19;100.00;76413.88;5040144;28;20044;-90
2022/01/02 08:42:01;;;;;;;17.23;6.17;;;;;;;-144.19;100.00;76413.88;5056258;28;20055;-92
2022/01/02 08:44:27;;;;;;;18.98;6.07;;;;;;;-144.19;100.00;76380.41;5040625;28;20140;-88
2022/01/02 08:46:54;;;;;;;14.67;5.87;;;;;;;-144.19;100.00;76370.56;5038102;28;20139;-90
2022/01/02 08:49:22;;;;;;;12.23;4.97;;;;;;;-144.19;100.00;76378.44;5050159;28;20065;-89
2022/01/02 08:51:50;;;;;;;10.25;4.85;;;;;;;-144.19;100.00;76362.69;5073973;28;20056;-89
2022/01/02 08:54:17;;;;;;;15.15;5.35;;;;;;;-144.19;100.00;76356.78;5074454;28;20561;-88
2022/01/02 08:56:43;;;;;;;13.02;5.80;;;;;;;-144.19;100.00;76339.09;5077252;28;20058;-89
2022/01/02 08:59:10;;;;;;;16.23;5.05;;;;;;;-144.19;100.00;76327.28;5060615;28;20048;-89
2022/01/02 09:01:36;;;;;;;8.82;4.28;;;;;;;-144.19;100.00;76315.47;5078424;28;20399;-90
2022/01/02 09:04:03;;;;;;;9.85;4.25;;;;;;;-144.19;100.00;76299.72;5076417;28;20058;-91
2022/01/02 09:06:29;;;;;;;12.55;4.72;;;;;;;-144.19;100.00;76307.59;5074259;28;20052;-89
2022/01/02 09:08:56;;;;;;;11.93;4.67;;;;;;;-144.19;100.00;76307.59;5077488;28;20544;-91
2022/01/02 09:11:23;;;;;;;10.63;4.82;;;;;;;-144.19;100.00;76293.81;5077973;28;20288;-89
2022/01/02 09:13:50;;;;;;;12.85;4.22;;;;;;;-144.19;100.00;76291.84;5077122;28;20058;-91
2022/01/02 09:16:16;;;;;;;13.80;4.35;;;;;;;-144.19;100.00;76287.91;5075622;28;20055;-90
2022/01/02 09:18:43;;;;;;;13.73;5.13;;;;;;;-144.19;100.00;76278.06;5079117;28;20135;-90
2022/01/02 09:21:09;;;;;;;9.30;3.38;;;;;;;-144.19;100.00;76291.84;5059942;28;20306;-90
2022/01/02 09:23:36;;;;;;;12.37;3.60;;;;;;;-144.19;100.00;76291.84;5058906;28;20060;-89
2022/01/02 09:26:03;;;;;;;13.73;4.10;;;;;;;-144.19;100.00;76303.66;5068717;28;20131;-89
2022/01/02 09:28:29;;;;;;;;;;;;;;;-144.19;100.00;76289.88;5073086;28;20684;-90
2022/01/02 09:30:56;;;;;;;9.82;4.28;;;;;;;-144.19;100.00;76303.66;5058026;28;19927;-89
2022/01/02 09:33:22;;;;;;;12.87;4.03;;;;;;;-144.19;100.00;76283.97;5060815;28;20052;-87
2022/01/02 09:35:49;;;;;;;13.70;4.03;;;;;;;-144.19;100.00;76295.78;5062319;28;20804;-92
2022/01/02 09:38:15;;;;;;;9.45;3.70;;;;;;;-144.19;100.00;76311.53;5062650;28;20058;-88
2022/01/02 09:40:42;;;;;;;12.73;4.50;;;;;;;-144.19;100.00;76311.53;5065514;28;20056;-91
2022/01/02 09:43:09;;;;;;;10.95;4.93;;;;;;;-144.19;100.00;76307.59;5053671;28;20301;-90
2022/01/02 09:45:38;;;;;;;8.85;3.80;;;;;;;-144.19;100.00;76315.47;5060852;28;20052;-89
2022/01/02 09:48:07;;;;;;;10.52;4.28;;;;;;;-144.19;100.00;76325.31;5059545;28;20071;-88
2022/01/02 09:50:35;;;;;;;9.90;3.80;;;;;;;-144.19;100.00;76321.38;5061174;28;20131;-89
2022/01/02 09:53:02;;;;;;;8.68;4.25;;;;;;;-144.19;100.00;76319.41;5058762;28;20056;-88
2022/01/02 09:55:28;;;;;;;11.73;3.55;;;;;;;-144.19;100.00;76307.59;5061840;28;20039;-88
2022/01/02 09:57:59;;;;;;;18.30;4.27;;;;;;;-144.19;100.00;76307.59;5060565;28;20437;-88
2022/01/02 10:00:27;;;;;;;14.85;4.07;;;;;;;-144.19;100.00;76307.59;5057017;28;20298;-88
2022/01/02 10:03:01;;;;;;;8.75;4.15;;;;;;;-144.19;100.00;76283.97;5056062;28;20048;-87
2022/01/02 10:05:47;;;;;;;10.32;4.55;;;;;;;-144.19;100.00;76305.63;5058343;28;20078;-91
2022/01/02 10:08:23;;;;;;;12.00;4.85;;;;;;;-144.19;100.00;76317.44;5059186;28;20128;-89
2022/01/02 10:11:09;;;;;;;10.50;4.32;;;;;;;-144.19;100.00;76295.78;5048011;28;20052;-88
2022/01/02 10:13:39;;;;;;;11.55;4.05;;;;;;;-144.19;100.00;76276.09;5036369;28;20060;-91
2022/01/02 10:16:18;;;;;;;11.63;4.63;;;;;;;-144.19;100.00;76268.22;5035551;28;20060;-90
2022/01/02 10:18:46;;;;;;;13.45;4.75;;;;;;;-144.19;100.00;76274.13;5039998;28;20165;-89
2022/01/02 10:21:25;;;;;;;;;;;;;;;-144.19;100.00;76285.94;5057695;28;20070;-89
2022/01/02 10:24:07;;;;;;;;;;;;;;;-144.19;100.00;76264.28;5055526;28;19921;-88
2022/01/02 10:26:34;;;;;;;10.15;3.65;;;;;;;-144.19;100.00;76260.34;5055026;28;19921;-88
2022/01/02 10:29:10;;;;;;;8.75;4.10;;;;;;;-144.19;100.00;76228.84;5055950;28;20044;-90
2022/01/02 10:31:36;;;;;;;11.82;4.22;;;;;;;-144.19;100.00;76209.19;5055596;28;20053;-89
2022/01/02 10:34:03;;;;;;;8.65;4.43;;;;;;;-144.19;100.00;76224.91;5055178;28;20140;-90
2022/01/02 10:36:33;;;;;;;10.85;3.80;;;;;;;-144.19;100.00;76193.44;5054796;28;20056;-91
2022/01/02 10:39:01;;;;;;;9.32;3.15;;;;;;;-144.19;100.00;76175.72;5061478;28;20068;-88
2022/01/02 10:41:39;;;;;;;8.73;3.50;;;;;;;-144.19;100.00;76177.69;5052693;28;20051;-90
2022/01/02 10:44:16;;;;;;;9.60;3.53;;;;;;;-144.19;100.00;76183.59;5036653;28;20399;-90
2022/01/02 10:47:05;;;;;;;9.25;4.65;;;;;;;-144.19;100.00;76187.53;5036048;28;20059;-89
2022/01/02 10:49:50;;;;;;;8.45;3.55;;;;;;;-144.19;100.00;76185.56;5039535;28;20051;-89
2022/01/02 10:52:18;;;;;;;12.35;3.88;;;;;;;-144.19;100.00;76185.56;5047549;28;20052;-89
2022/01/02 10:54:44;;;;;;;10.13;3.55;;;;;;;-144.19;100.00;76169.81;5057245;28;20414;-90
2022/01/02 10:57:12;;;;;;;13.00;3.60;;;;;;;-144.19;100.00;76156.03;5077759;28;20048;-90
2022/01/02 10:59:41;;;;;;;8.80;3.58;;;;;;;-144.19;100.00;76150.13;5078792;28;20306;-89
2022/01/02 11:02:08;;;;;;;11.10;3.60;;;;;;;-144.19;100.00;76138.31;5079067;28;20115;-92
2022/01/02 11:04:36;;;;;;;10.73;3.58;;;;;;;-144.19;100.00;76130.44;5080288;28;20111;-89
2022/01/02 11:07:02;;;;;;;;;;;;;;;-144.19;100.00;76126.50;5042443;28;20127;-88
2022/01/02 11:09:31;;;;;;;7.72;3.70;;;;;;;-144.19;100.00;76120.59;5038000;28;19921;-90
2022/01/02 11:11:58;;;;;;;8.75;3.95;;;;;;;-144.19;100.00;76122.56;5037797;28;20057;-90
2022/01/02 11:14:25;;;;;;;9.27;3.83;;;;;;;-144.19;100.00;76114.69;5058337;28;20056;-91
2022/01/02 11:16:51;;;;;;;7.95;3.78;;;;;;;-144.19;100.00;76114.69;5038598;28;20297;-94